createdAt,value
2019-04-16T00:00:42.420Z,75.6
2019-04-16T00:01:44.386Z,75.79
2019-04-16T00:02:40.080Z,75.7
2019-04-16T00:03:40.076Z,75.6
2019-04-16T00:04:40.076Z,76.08
2019-04-16T00:05:40.046Z,76.08
2019-04-16T00:06:40.114Z,75.89
2019-04-16T00:07:40.059Z,76.08
2019-04-16T00:08:40.043Z,76.37
2019-04-16T00:09:40.068Z,76.93
2019-04-16T00:10:40.052Z,77.6
2019-04-16T00:11:40.057Z,77.37
2019-04-16T00:12:40.087Z,77.37
2019-04-16T00:13:40.067Z,77.94
2019-04-16T00:14:40.076Z,77.84
2019-04-16T00:15:43.826Z,77.51
2019-04-16T00:16:41.312Z,77.47
2019-04-16T00:17:40.508Z,77.18
2019-04-16T00:18:40.067Z,77.6
2019-04-16T00:19:40.053Z,77.47
2019-04-16T00:20:40.749Z,77.56
2019-04-16T00:21:43.395Z,77.18
2019-04-16T00:22:40.094Z,77.66
2019-04-16T00:23:40.094Z,77.75
2019-04-16T00:24:40.096Z,78.32
2019-04-16T00:25:40.113Z,77.75
2019-04-16T00:26:40.121Z,78.32
2019-04-16T00:27:40.180Z,78.03
2019-04-16T00:28:40.093Z,78.23
2019-04-16T00:29:42.324Z,78.61
2019-04-16T00:30:40.119Z,78.61
2019-04-16T00:31:40.396Z,78.8
2019-04-16T00:32:42.610Z,78.61
2019-04-16T00:33:44.991Z,78.42
2019-04-16T00:34:44.451Z,78.89
2019-04-16T00:35:40.108Z,78.32
2019-04-16T00:36:40.115Z,78.51
2019-04-16T00:37:40.103Z,78.13
2019-04-16T00:38:43.731Z,77.84
2019-04-16T00:39:40.078Z,77.62
2019-04-16T00:40:40.503Z,78.32
2019-04-16T00:41:40.134Z,78.13
2019-04-16T00:42:40.078Z,77.56
2019-04-16T00:43:40.105Z,77.66
2019-04-16T00:44:40.130Z,78.23
2019-04-16T00:45:40.134Z,78.13
2019-04-16T00:46:40.105Z,78.13
2019-04-16T00:47:40.123Z,78.19
2019-04-16T00:48:40.099Z,78.32
2019-04-16T00:49:40.796Z,77.84
2019-04-16T00:50:40.108Z,77.56
2019-04-16T00:51:40.174Z,77.94
2019-04-16T00:52:40.349Z,78.51
2019-04-16T00:53:42.297Z,78.7
2019-04-16T00:54:44.578Z,78.75
2019-04-16T00:55:42.272Z,79.04
2019-04-16T00:56:40.134Z,79.42
2019-04-16T00:57:40.137Z,79.42
2019-04-16T00:58:40.167Z,79.8
2019-04-16T00:59:40.130Z,79.99
2019-04-16T01:00:40.129Z,80.46
2019-04-16T01:01:40.157Z,80.75
2019-04-16T01:02:40.104Z,80.46
2019-04-16T01:03:40.188Z,80.94
2019-04-16T01:04:40.098Z,81.23
2019-04-16T01:05:40.161Z,81.51
2019-04-16T01:06:42.975Z,81.41
2019-04-16T01:07:40.113Z,81.88
2019-04-16T01:08:53.484Z,81.85
2019-04-16T01:09:40.148Z,81.94
2019-04-16T01:10:40.111Z,82.13
2019-04-16T01:11:40.115Z,82.04
2019-04-16T01:12:40.139Z,82.04
2019-04-16T01:13:40.145Z,82.04
2019-04-16T01:14:40.159Z,82.42
2019-04-16T01:15:40.157Z,81.85
2019-04-16T01:16:40.147Z,82.51
2019-04-16T01:17:40.116Z,81.94
2019-04-16T01:18:41.904Z,82.23
2019-04-16T01:19:43.442Z,83.08
2019-04-16T01:20:40.354Z,83.08
2019-04-16T01:21:44.307Z,83.08
2019-04-16T01:22:40.130Z,82.89
2019-04-16T01:23:40.200Z,83.17
2019-04-16T01:24:40.143Z,83.08
2019-04-16T01:25:40.233Z,82.89
2019-04-16T01:26:40.132Z,82.7
2019-04-16T01:27:40.159Z,82.42
2019-04-16T01:28:40.148Z,82.32
2019-04-16T01:29:40.158Z,82.23
2019-04-16T01:30:40.161Z,82.23
2019-04-16T01:31:41.848Z,81.66
2019-04-16T01:32:43.336Z,81.85
2019-04-16T01:33:40.204Z,81.94
2019-04-16T01:34:40.161Z,82.04
2019-04-16T01:35:40.167Z,81.56
2019-04-16T01:36:40.174Z,81.09
2019-04-16T01:37:40.265Z,81.27
2019-04-16T01:38:40.172Z,81.23
2019-04-16T01:39:40.177Z,81.32
2019-04-16T01:40:40.185Z,80.62
2019-04-16T01:41:40.232Z,80.27
2019-04-16T01:42:40.190Z,80.56
2019-04-16T01:43:40.146Z,80.18
2019-04-16T01:44:40.171Z,80.08
2019-04-16T01:45:40.178Z,79.99
2019-04-16T01:46:40.165Z,80.08
2019-04-16T01:47:40.184Z,79.9
2019-04-16T01:48:42.228Z,79.8
2019-04-16T01:49:44.294Z,79.33
2019-04-16T01:50:43.474Z,79.04
2019-04-16T01:51:40.543Z,79.42
2019-04-16T01:52:40.182Z,79.23
2019-04-16T01:53:40.186Z,79.14
2019-04-16T01:54:40.219Z,79.42
2019-04-16T01:55:42.389Z,79.23
2019-04-16T01:56:40.171Z,79.42
2019-04-16T01:57:40.156Z,79.52
2019-04-16T01:58:40.179Z,79.99
2019-04-16T01:59:40.187Z,79.42
2019-04-16T02:00:41.977Z,79.33
2019-04-16T02:01:40.279Z,79.8
2019-04-16T02:02:40.240Z,79.8
2019-04-16T02:03:40.166Z,79.61
2019-04-16T02:04:40.247Z,79.71
2019-04-16T02:05:40.179Z,79.99
2019-04-16T02:06:40.241Z,80.37
2019-04-16T02:07:40.198Z,80.27
2019-04-16T02:08:40.274Z,80.18
2019-04-16T02:09:40.172Z,80.75
2019-04-16T02:10:41.602Z,81.04
2019-04-16T02:11:43.879Z,80.94
2019-04-16T02:12:43.345Z,81.04
2019-04-16T02:13:40.236Z,81.13
2019-04-16T02:14:40.212Z,81.23
2019-04-16T02:15:40.217Z,81.79
2019-04-16T02:16:40.231Z,80.94
2019-04-16T02:17:40.198Z,81.37
2019-04-16T02:18:40.213Z,81.41
2019-04-16T02:19:40.204Z,81.88
2019-04-16T02:20:42.181Z,81.88
2019-04-16T02:21:43.804Z,81.88
2019-04-16T02:22:42.205Z,81.88
2019-04-16T02:23:40.209Z,81.88
2019-04-16T02:24:40.240Z,82.46
2019-04-16T02:25:40.206Z,82.46
2019-04-16T02:26:40.265Z,81.98
2019-04-16T02:27:40.233Z,81.7
2019-04-16T02:28:40.260Z,82.46
2019-04-16T02:29:40.269Z,82.46
2019-04-16T02:30:42.308Z,82.27
2019-04-16T02:31:40.287Z,82.27
2019-04-16T02:32:40.247Z,82.55
2019-04-16T02:33:40.276Z,82.55
2019-04-16T02:34:40.248Z,82.89
2019-04-16T02:35:40.308Z,82.7
2019-04-16T02:36:40.223Z,82.89
2019-04-16T02:37:40.428Z,82.89
2019-04-16T02:38:45.670Z,83.17
2019-04-16T02:39:55.164Z,83.08
2019-04-16T02:40:40.572Z,82.89
2019-04-16T02:41:40.271Z,82.7
2019-04-16T02:42:40.297Z,82.79
2019-04-16T02:43:43.786Z,83.08
2019-04-16T02:44:40.310Z,83.36
2019-04-16T02:45:40.254Z,82.7
2019-04-16T02:46:40.340Z,83.27
2019-04-16T02:47:44.812Z,83.17
2019-04-16T02:48:40.298Z,83.46
2019-04-16T02:49:40.252Z,84.03
2019-04-16T02:50:40.228Z,84.31
2019-04-16T02:51:44.166Z,84.59
2019-04-16T02:52:40.242Z,84.69
2019-04-16T02:53:40.268Z,84.59
2019-04-16T02:54:40.296Z,84.31
2019-04-16T02:55:45.582Z,84.5
2019-04-16T02:56:40.285Z,83.84
2019-04-16T02:57:40.363Z,84.12
2019-04-16T02:58:40.320Z,84.12
2019-04-16T02:59:45.655Z,84.03
2019-04-16T03:00:40.313Z,84.03
2019-04-16T03:01:40.294Z,84.22
2019-04-16T03:02:40.354Z,84.78
2019-04-16T03:03:40.284Z,84.69
2019-04-16T03:04:40.718Z,84.69
2019-04-16T03:05:40.324Z,84.5
2019-04-16T03:06:40.296Z,84.31
2019-04-16T03:07:40.305Z,84.41
2019-04-16T03:08:40.262Z,84.5
2019-04-16T03:10:41.750Z,85.07
2019-04-16T03:11:40.324Z,84.84
2019-04-16T03:12:40.286Z,84.88
2019-04-16T03:13:40.315Z,85.41
2019-04-16T03:14:40.345Z,85.03
2019-04-16T03:15:40.314Z,85.13
2019-04-16T03:16:41.307Z,85.31
2019-04-16T03:17:44.959Z,85.69
2019-04-16T03:18:40.281Z,85.6
2019-04-16T03:19:41.697Z,85.78
2019-04-16T03:20:40.338Z,85.78
2019-04-16T03:21:40.368Z,86.07
2019-04-16T03:22:40.340Z,85.78
2019-04-16T03:23:40.490Z,85.78
2019-04-16T03:24:42.774Z,85.78
2019-04-16T03:25:41.299Z,85.69
2019-04-16T03:26:40.366Z,85.31
2019-04-16T03:27:40.356Z,85.5
2019-04-16T03:28:40.341Z,85.5
2019-04-16T03:29:40.394Z,85.41
2019-04-16T03:30:45.177Z,85.36
2019-04-16T03:31:40.312Z,85.93
2019-04-16T03:32:40.272Z,85.55
2019-04-16T03:33:48.067Z,85.36
2019-04-16T03:34:40.327Z,85.22
2019-04-16T03:35:40.385Z,85.69
2019-04-16T03:36:40.359Z,85.78
2019-04-16T03:37:40.318Z,85.5
2019-04-16T03:38:44.487Z,85.78
2019-04-16T03:39:43.576Z,85.36
2019-04-16T03:40:40.357Z,85.83
2019-04-16T03:41:40.344Z,84.98
2019-04-16T03:42:40.475Z,85.64
2019-04-16T03:43:40.363Z,85.41
2019-04-16T03:44:40.296Z,85.78
2019-04-16T03:45:43.158Z,85.78
2019-04-16T03:46:45.941Z,86.64
2019-04-16T03:47:40.430Z,85.88
2019-04-16T03:50:47.800Z,86.26
2019-04-16T03:51:00.418Z,86.07
2019-04-16T03:51:58.826Z,86.26
2019-04-16T03:52:58.860Z,85.6
2019-04-16T03:53:58.834Z,86.07
2019-04-16T03:54:58.847Z,86.07
2019-04-16T03:56:00.998Z,86.07
2019-04-16T03:57:01.788Z,85.6
2019-04-16T03:57:58.845Z,86.45
2019-04-16T03:58:58.844Z,86.16
2019-04-16T04:00:00.741Z,86.16
2019-04-16T04:00:58.845Z,86.35
2019-04-16T04:01:58.873Z,86.16
2019-04-16T04:02:58.851Z,85.13
2019-04-16T04:04:00.263Z,85.97
2019-04-16T04:05:06.453Z,85.97
2019-04-16T04:05:58.864Z,85.97
2019-04-16T04:06:58.828Z,85.78
2019-04-16T04:07:58.860Z,85.5
2019-04-16T04:08:58.862Z,85.17
2019-04-16T04:10:01.513Z,85.17
2019-04-16T04:10:58.903Z,84.88
2019-04-16T04:11:58.866Z,84.98
2019-04-16T04:12:58.893Z,85.13
2019-04-16T04:13:58.838Z,84.94
2019-04-16T04:14:58.906Z,84.94
2019-04-16T04:16:03.621Z,84.74
2019-04-16T04:16:58.877Z,84.84
2019-04-16T04:17:58.857Z,84.94
2019-04-16T04:18:58.870Z,84.36
2019-04-16T04:19:58.856Z,84.46
2019-04-16T04:20:58.900Z,84.46
2019-04-16T04:21:58.851Z,84.65
2019-04-16T04:23:00.275Z,84.65
2019-04-16T04:24:02.571Z,84.55
2019-04-16T04:25:00.490Z,84.36
2019-04-16T04:25:58.894Z,84.55
2019-04-16T04:26:58.867Z,84.36
2019-04-16T04:27:59.193Z,84.46
2019-04-16T04:28:58.894Z,84.55
2019-04-16T04:29:59.987Z,84.27
2019-04-16T04:31:01.804Z,84.65
2019-04-16T04:32:02.992Z,84.17
2019-04-16T04:32:58.884Z,83.89
2019-04-16T04:33:58.931Z,83.8
2019-04-16T04:34:58.955Z,83.89
2019-04-16T04:35:58.934Z,84.08
2019-04-16T04:37:01.618Z,83.98
2019-04-16T04:38:00.699Z,84.17
2019-04-16T04:38:58.922Z,83.8
2019-04-16T04:39:58.984Z,84.55
2019-04-16T04:41:02.523Z,84.55
2019-04-16T04:41:59.856Z,84.08
2019-04-16T04:43:00.759Z,83.98
2019-04-16T04:44:03.777Z,83.89
2019-04-16T04:44:59.061Z,83.89
2019-04-16T04:45:58.913Z,84.08
2019-04-16T04:46:58.925Z,84.08
2019-04-16T04:50:06.982Z,83.42
2019-04-16T04:50:18.047Z,83.27
2019-04-16T04:51:18.042Z,83.08
2019-04-16T04:52:18.106Z,83.36
2019-04-16T04:53:22.023Z,84.03
2019-04-16T04:54:21.456Z,84.69
2019-04-16T04:55:18.272Z,84.41
2019-04-16T04:56:21.718Z,84.5
2019-04-16T04:57:18.061Z,84.5
2019-04-16T04:58:18.062Z,84.69
2019-04-16T04:59:18.051Z,84.12
2019-04-16T05:00:18.160Z,83.84
2019-04-16T05:01:18.040Z,83.65
2019-04-16T05:02:18.520Z,83.36
2019-04-16T05:03:19.453Z,83.27
2019-04-16T05:04:22.257Z,83.36
2019-04-16T05:05:18.024Z,83.08
2019-04-16T05:06:18.220Z,84.03
2019-04-16T05:07:18.269Z,84.03
2019-04-16T05:08:18.107Z,84.22
2019-04-16T05:09:18.281Z,84.12
2019-04-16T05:10:18.118Z,84.12
2019-04-16T05:11:19.696Z,84.03
2019-04-16T05:12:23.336Z,83.08
2019-04-16T05:13:18.083Z,83.08
2019-04-16T05:14:18.067Z,83.27
2019-04-16T05:15:18.073Z,83.55
2019-04-16T05:16:18.226Z,83.27
2019-04-16T05:17:18.084Z,82.79
2019-04-16T05:18:18.092Z,82.13
2019-04-16T05:19:18.467Z,81.88
2019-04-16T05:20:19.426Z,81.79
2019-04-16T05:21:21.617Z,81.6
2019-04-16T05:22:20.721Z,80.75
2019-04-16T05:23:18.222Z,81.13
2019-04-16T05:24:18.108Z,80.94
2019-04-16T05:25:18.087Z,80.94
2019-04-16T05:26:18.123Z,80.94
2019-04-16T05:27:18.499Z,80.56
2019-04-16T05:28:18.079Z,80.84
2019-04-16T05:29:20.684Z,80.46
2019-04-16T05:30:23.297Z,80.22
2019-04-16T05:31:18.054Z,79.9
2019-04-16T05:32:18.085Z,80.03
2019-04-16T05:33:18.412Z,80.03
2019-04-16T05:34:20.987Z,79.94
2019-04-16T05:35:18.101Z,79.74
2019-04-16T05:36:21.005Z,79.46
2019-04-16T05:37:21.902Z,78.51
2019-04-16T05:38:20.393Z,78.8
2019-04-16T05:39:18.159Z,78.7
2019-04-16T05:40:18.125Z,78.7
2019-04-16T05:41:23.686Z,78.42
2019-04-16T05:42:18.140Z,78.32
2019-04-16T05:43:18.087Z,77.66
2019-04-16T05:44:18.151Z,77.28
2019-04-16T05:45:18.426Z,77.28
2019-04-16T05:46:18.165Z,77.47
2019-04-16T05:47:20.943Z,77.31
2019-04-16T05:48:18.493Z,76.65
2019-04-16T05:49:18.341Z,76.46
2019-04-16T05:50:18.652Z,76.08
2019-04-16T05:51:18.134Z,75.32
2019-04-16T05:52:18.123Z,75.45
2019-04-16T05:53:18.131Z,74.69
2019-04-16T05:54:18.391Z,74.03
2019-04-16T05:55:20.670Z,74.31
2019-04-16T05:56:20.153Z,73.4
2019-04-16T05:57:18.100Z,73.02
2019-04-16T05:58:18.110Z,72.45
2019-04-16T05:59:18.115Z,72.01
2019-04-16T06:00:18.288Z,71.25
2019-04-16T06:01:18.223Z,70.87
2019-04-16T06:02:21.939Z,70.2
2019-04-16T06:03:23.544Z,70.52
2019-04-16T06:04:18.174Z,69.95
2019-04-16T06:05:18.108Z,69.38
2019-04-16T06:06:18.186Z,68.9
2019-04-16T06:07:18.182Z,68.65
2019-04-16T06:08:18.150Z,67.99
2019-04-16T06:09:18.150Z,67.51
2019-04-16T06:10:21.494Z,67.61
2019-04-16T06:11:35.623Z,66.88
2019-04-16T06:12:18.147Z,66.69
2019-04-16T06:13:18.192Z,67.16
2019-04-16T06:14:21.313Z,67.07
2019-04-16T06:15:22.462Z,66.31
2019-04-16T06:16:18.194Z,66.69
2019-04-16T06:17:18.188Z,66.69
2019-04-16T06:18:20.893Z,67.07
2019-04-16T06:19:18.211Z,66.78
2019-04-16T06:20:22.319Z,66.63
2019-04-16T06:21:18.168Z,66.15
2019-04-16T06:22:18.176Z,65.33
2019-04-16T06:23:18.186Z,64.75
2019-04-16T06:24:18.276Z,64.21
2019-04-16T06:25:18.524Z,63.54
2019-04-16T06:26:19.767Z,63.07
2019-04-16T06:27:18.192Z,62.97
2019-04-16T06:28:18.168Z,62.97
2019-04-16T06:30:23.150Z,62.91
2019-04-16T06:30:39.021Z,63.1
2019-04-16T06:31:42.544Z,62.81
2019-04-16T06:32:38.967Z,63.26
2019-04-16T06:33:38.913Z,62.88
2019-04-16T06:34:38.956Z,62.91
2019-04-16T06:35:46.131Z,61.98
2019-04-16T06:36:38.935Z,61.69
2019-04-16T06:37:39.001Z,61.32
2019-04-16T06:38:38.985Z,61.32
2019-04-16T06:39:38.955Z,60.74
2019-04-16T06:40:39.257Z,60.77
2019-04-16T06:41:47.654Z,60.58
2019-04-16T06:42:41.266Z,60.3
2019-04-16T06:43:39.023Z,60.3
2019-04-16T06:44:38.966Z,60.42
2019-04-16T06:45:40.408Z,59.27
2019-04-16T06:46:42.353Z,59.94
2019-04-16T06:47:41.721Z,59.56
2019-04-16T06:48:38.995Z,58.7
2019-04-16T06:49:42.206Z,59.08
2019-04-16T06:50:43.323Z,59.59
2019-04-16T06:51:43.378Z,59.2
2019-04-16T06:52:38.951Z,59.66
2019-04-16T06:53:39.016Z,59.47
2019-04-16T06:54:39.005Z,58.7
2019-04-16T06:55:38.973Z,58.15
2019-04-16T06:56:42.642Z,58.73
2019-04-16T06:57:40.292Z,57.7
2019-04-16T07:00:07.127Z,56.84
2019-04-16T07:01:05.557Z,56.94
2019-04-16T07:02:02.892Z,57.83
2019-04-16T07:03:05.462Z,57.28
2019-04-16T07:04:02.890Z,56.9
2019-04-16T07:05:04.555Z,56.13
2019-04-16T07:06:06.625Z,55.68
2019-04-16T07:07:07.720Z,55.78
2019-04-16T07:08:02.874Z,55.97
2019-04-16T07:09:03.104Z,55.42
2019-04-16T07:10:03.474Z,54.53
2019-04-16T07:11:03.045Z,54.91
2019-04-16T07:12:02.914Z,54.34
2019-04-16T07:13:03.361Z,53.86
2019-04-16T07:14:02.884Z,53.96
2019-04-16T07:15:02.895Z,54.05
2019-04-16T07:16:03.266Z,53.96
2019-04-16T07:17:03.556Z,53.86
2019-04-16T07:18:07.641Z,54.05
2019-04-16T07:19:02.898Z,53.79
2019-04-16T07:20:04.581Z,53.58
2019-04-16T07:21:02.949Z,53.77
2019-04-16T07:22:02.954Z,53.28
2019-04-16T07:23:02.943Z,53.77
2019-04-16T07:24:03.053Z,54.03
2019-04-16T07:25:07.007Z,53.93
2019-04-16T07:26:06.199Z,54.22
2019-04-16T07:27:03.011Z,54.38
2019-04-16T07:28:02.957Z,54.67
2019-04-16T07:29:03.029Z,54.79
2019-04-16T07:30:08.928Z,54.63
2019-04-16T07:31:03.204Z,54.5
2019-04-16T07:32:03.387Z,55.05
2019-04-16T07:33:03.843Z,54.67
2019-04-16T07:34:02.971Z,54.77
2019-04-16T07:35:02.939Z,54.38
2019-04-16T07:36:03.128Z,54.32
2019-04-16T07:37:04.490Z,54.34
2019-04-16T07:38:11.352Z,54.15
2019-04-16T07:39:04.995Z,53.77
2019-04-16T07:40:08.246Z,54.15
2019-04-16T07:41:02.995Z,53.77
2019-04-16T07:42:20.710Z,53.77
2019-04-16T07:43:03.088Z,53.48
2019-04-16T07:44:10.912Z,53.09
2019-04-16T07:45:02.979Z,53.12
2019-04-16T07:51:42.668Z,52.81
2019-04-16T07:52:45.172Z,53.38
2019-04-16T07:53:47.057Z,53.58
2019-04-16T07:54:42.644Z,53.48
2019-04-16T07:55:42.652Z,53.67
2019-04-16T07:56:42.685Z,53.99
2019-04-16T07:57:42.653Z,53.03
2019-04-16T07:58:42.653Z,52.74
2019-04-16T07:59:42.640Z,52.76
2019-04-16T08:00:44.023Z,52.76
2019-04-16T08:01:43.981Z,52.55
2019-04-16T08:02:42.681Z,52.57
2019-04-16T08:03:42.766Z,52.38
2019-04-16T08:04:42.654Z,52.09
2019-04-16T08:05:44.378Z,52.28
2019-04-16T08:06:45.943Z,52.16
2019-04-16T08:07:42.637Z,51.78
2019-04-16T08:08:42.695Z,51.61
2019-04-16T08:09:42.703Z,52.45
2019-04-16T08:16:50.937Z,52.57
2019-04-16T08:17:51.744Z,52.12
2019-04-16T08:18:50.564Z,51.64
2019-04-16T08:19:54.991Z,51.14
2019-04-16T08:21:09.924Z,51.35
2019-04-16T08:21:50.562Z,51.67
2019-04-16T08:22:50.813Z,52.43
2019-04-16T08:23:54.423Z,51.57
2019-04-16T08:24:50.610Z,50.51
2019-04-16T08:26:03.012Z,50.32
2019-04-16T08:26:50.905Z,49.96
2019-04-16T08:27:53.924Z,49.84
2019-04-16T08:28:50.590Z,50.61
2019-04-16T08:29:50.609Z,50.51
2019-04-16T08:30:50.584Z,50.63
2019-04-16T08:31:50.607Z,50.05
2019-04-16T08:32:51.580Z,49.48
2019-04-16T08:33:50.598Z,50.15
2019-04-16T08:34:50.583Z,49.69
2019-04-16T08:35:50.618Z,50.08
2019-04-16T08:36:50.676Z,50.27
2019-04-16T08:37:51.964Z,50.95
2019-04-16T08:38:50.568Z,50.78
2019-04-16T08:39:58.356Z,49.89
2019-04-16T08:40:50.559Z,49.6
2019-04-16T08:41:54.922Z,49.41
2019-04-16T08:42:50.592Z,49.41
2019-04-16T08:43:50.601Z,48.93
2019-04-16T08:44:50.649Z,49.22
2019-04-16T08:45:50.614Z,50.4
2019-04-16T08:46:50.623Z,49.72
2019-04-16T08:47:50.688Z,49.24
2019-04-16T08:48:54.332Z,47.82
2019-04-16T08:49:56.452Z,47.39
2019-04-16T08:50:52.142Z,47.7
2019-04-16T08:51:50.672Z,47.87
2019-04-16T08:52:50.663Z,48.64
2019-04-16T08:53:50.646Z,48.28
2019-04-16T08:54:54.932Z,47.61
2019-04-16T08:55:50.617Z,47.51
2019-04-16T08:56:50.727Z,47.68
2019-04-16T08:57:50.627Z,47.77
2019-04-16T08:58:50.640Z,47.3
2019-04-16T08:59:50.663Z,47.61
2019-04-16T09:00:50.689Z,47.03
2019-04-16T09:01:51.343Z,46.45
2019-04-16T09:02:50.621Z,46.55
2019-04-16T09:03:50.663Z,47.2
2019-04-16T09:04:50.653Z,47.41
2019-04-16T09:05:50.704Z,47.13
2019-04-16T09:06:50.653Z,47.51
2019-04-16T09:07:53.501Z,46.93
2019-04-16T09:08:55.490Z,47.2
2019-04-16T09:10:01.108Z,47.3
2019-04-16T09:10:50.682Z,46.55
2019-04-16T09:11:51.434Z,46.38
2019-04-16T09:13:05.654Z,46.77
2019-04-16T09:13:51.123Z,46.4
2019-04-16T09:14:54.798Z,46.5
2019-04-16T09:15:50.678Z,46.5
2019-04-16T09:16:50.633Z,46.31
2019-04-16T09:17:50.652Z,45.83
2019-04-16T09:18:50.640Z,46.01
2019-04-16T09:19:50.651Z,45.13
2019-04-16T09:20:50.657Z,45.73
2019-04-16T09:21:50.661Z,46.11
2019-04-16T09:22:53.580Z,46.31
2019-04-16T09:23:50.677Z,45.65
2019-04-16T09:24:50.679Z,44.89
2019-04-16T09:25:50.705Z,45.34
2019-04-16T09:26:52.653Z,45.36
2019-04-16T09:27:50.702Z,45.56
2019-04-16T09:28:50.785Z,45.27
2019-04-16T09:29:50.695Z,45.27
2019-04-16T09:30:53.241Z,45.29
2019-04-16T09:31:54.970Z,45.29
2019-04-16T09:32:50.740Z,44.98
2019-04-16T09:33:50.699Z,44.79
2019-04-16T09:34:50.722Z,44.59
2019-04-16T09:35:50.755Z,44.52
2019-04-16T09:36:50.727Z,44.71
2019-04-16T09:37:50.773Z,45.1
2019-04-16T09:38:50.781Z,44.71
2019-04-16T09:39:59.189Z,44.21
2019-04-16T09:40:51.951Z,45.1
2019-04-16T09:41:50.724Z,44.83
2019-04-16T09:42:50.862Z,43.82
2019-04-16T09:43:53.598Z,44.49
2019-04-16T09:44:50.990Z,44.32
2019-04-16T09:45:50.717Z,45.03
2019-04-16T09:46:59.361Z,45.39
2019-04-16T09:47:50.697Z,44.81
2019-04-16T09:48:52.722Z,44.52
2019-04-16T09:49:50.699Z,45.03
2019-04-16T09:50:50.743Z,44.54
2019-04-16T09:51:53.600Z,43.6
2019-04-16T09:52:52.371Z,44.13
2019-04-16T09:53:50.760Z,43.87
2019-04-16T09:54:50.743Z,43.87
2019-04-16T09:55:53.254Z,43.77
2019-04-16T09:56:50.739Z,43.48
2019-04-16T09:57:50.707Z,43.31
2019-04-16T09:58:50.754Z,43.29
2019-04-16T09:59:51.116Z,43.48
2019-04-16T10:00:50.728Z,43.58
2019-04-16T10:01:50.753Z,43.58
2019-04-16T10:02:50.718Z,43.29
2019-04-16T10:03:53.533Z,42.79
2019-04-16T10:04:50.756Z,42.79
2019-04-16T10:05:50.780Z,42.9
2019-04-16T10:06:50.742Z,43.58
2019-04-16T10:07:50.740Z,43.29
2019-04-16T10:08:50.757Z,43.31
2019-04-16T10:09:59.606Z,42.85
2019-04-16T10:10:50.790Z,42.63
2019-04-16T10:11:50.811Z,42.46
2019-04-16T10:12:50.767Z,42.93
2019-04-16T10:13:50.798Z,43.41
2019-04-16T10:14:50.789Z,43.58
2019-04-16T10:15:51.207Z,43.5
2019-04-16T10:16:50.766Z,43.19
2019-04-16T10:17:50.749Z,42.54
2019-04-16T10:18:50.799Z,42.25
2019-04-16T10:19:50.765Z,42.46
2019-04-16T10:20:50.828Z,42.54
2019-04-16T10:21:56.064Z,42.35
2019-04-16T10:22:50.782Z,42.35
2019-04-16T10:23:50.772Z,43.12
2019-04-16T10:24:50.838Z,43.41
2019-04-16T10:25:50.764Z,42.54
2019-04-16T10:26:50.809Z,43.24
2019-04-16T10:27:50.795Z,43.52
2019-04-16T10:28:50.787Z,42.68
2019-04-16T10:29:50.819Z,42.39
2019-04-16T10:30:50.856Z,42.19
2019-04-16T10:31:50.808Z,42.58
2019-04-16T10:32:50.840Z,42.12
2019-04-16T10:33:50.783Z,41.44
2019-04-16T10:34:50.790Z,41.91
2019-04-16T10:35:50.809Z,42.19
2019-04-16T10:36:50.840Z,41.33
2019-04-16T10:37:50.846Z,41.98
2019-04-16T10:38:50.875Z,41.98
2019-04-16T10:39:58.980Z,42.08
2019-04-16T10:40:50.851Z,42.05
2019-04-16T10:41:50.810Z,42.54
2019-04-16T10:42:50.845Z,42.46
2019-04-16T10:43:50.836Z,41.98
2019-04-16T10:44:50.842Z,41.88
2019-04-16T10:45:50.867Z,42.97
2019-04-16T10:46:50.829Z,41.44
2019-04-16T10:47:50.866Z,41.42
2019-04-16T10:48:51.082Z,41.52
2019-04-16T10:49:50.978Z,42.48
2019-04-16T10:50:51.136Z,42.19
2019-04-16T10:51:50.965Z,41.91
2019-04-16T10:52:53.945Z,42.1
2019-04-16T10:53:50.861Z,42.02
2019-04-16T10:54:50.848Z,41.83
2019-04-16T10:55:50.898Z,41.35
2019-04-16T10:56:50.898Z,40.96
2019-04-16T10:57:50.860Z,41.93
2019-04-16T10:58:50.941Z,42.14
2019-04-16T10:59:50.872Z,42.43
2019-04-16T11:00:50.944Z,42.5
2019-04-16T11:01:50.880Z,41.83
2019-04-16T11:02:50.839Z,41.33
2019-04-16T11:05:09.763Z,42.19
2019-04-16T11:06:09.719Z,41.94
2019-04-16T11:07:09.757Z,41.75
2019-04-16T11:08:10.726Z,41.67
2019-04-16T11:09:09.921Z,41.29
2019-04-16T11:10:11.733Z,41
2019-04-16T11:11:09.734Z,40.88
2019-04-16T11:12:09.791Z,41.08
2019-04-16T11:13:09.758Z,41.27
2019-04-16T11:14:09.725Z,41.08
2019-04-16T11:15:09.752Z,40.3
2019-04-16T11:16:09.741Z,39.92
2019-04-16T11:17:09.742Z,40.28
2019-04-16T11:18:10.046Z,40.3
2019-04-16T11:19:09.845Z,39.55
2019-04-16T11:20:09.737Z,40.13
2019-04-16T11:21:09.737Z,40.15
2019-04-16T11:22:09.804Z,39.94
2019-04-16T11:23:10.718Z,40.13
2019-04-16T11:24:09.754Z,39.62
2019-04-16T11:25:09.804Z,39.99
2019-04-16T11:26:09.726Z,40.01
2019-04-16T11:27:09.747Z,40.11
2019-04-16T11:28:09.952Z,40.38
2019-04-16T11:29:09.785Z,40.28
2019-04-16T11:30:09.794Z,40.67
2019-04-16T11:31:09.812Z,40.86
2019-04-16T11:32:09.872Z,40.96
2019-04-16T11:33:09.860Z,40.28
2019-04-16T11:34:09.965Z,41.08
2019-04-16T11:35:12.764Z,41.05
2019-04-16T11:36:22.107Z,40.67
2019-04-16T11:37:11.910Z,40.59
2019-04-16T11:38:09.770Z,41.36
2019-04-16T11:39:09.758Z,41.08
2019-04-16T11:40:09.875Z,40.69
2019-04-16T11:41:09.820Z,40.9
2019-04-16T11:42:10.090Z,40.88
2019-04-16T11:43:09.971Z,40.59
2019-04-16T11:44:18.854Z,40.69
2019-04-16T11:45:09.817Z,40.98
2019-04-16T11:46:09.938Z,40.3
2019-04-16T11:47:09.849Z,40.03
2019-04-16T11:48:09.849Z,40.3
2019-04-16T11:49:09.926Z,40.52
2019-04-16T11:50:09.857Z,39.64
2019-04-16T11:51:10.078Z,40.42
2019-04-16T11:55:38.234Z,40.42
2019-04-16T11:56:38.361Z,40.59
2019-04-16T12:01:07.515Z,39.55
2019-04-16T12:02:07.377Z,40.13
2019-04-16T12:03:07.153Z,40.47
2019-04-16T12:04:07.333Z,39.61
2019-04-16T12:05:07.289Z,39.72
2019-04-16T12:06:07.227Z,39.34
2019-04-16T12:07:08.950Z,39.03
2019-04-16T12:08:07.195Z,39.53
2019-04-16T12:09:07.158Z,39.62
2019-04-16T12:10:07.233Z,39.43
2019-04-16T12:11:07.255Z,39.43
2019-04-16T12:12:07.203Z,39.62
2019-04-16T12:13:07.352Z,40.5
2019-04-16T12:14:12.196Z,40.4
2019-04-16T12:15:07.143Z,40.2
2019-04-16T12:16:07.183Z,40.01
2019-04-16T12:17:07.161Z,39.53
2019-04-16T12:18:07.220Z,38.93
2019-04-16T12:19:07.146Z,38.83
2019-04-16T12:20:07.171Z,38.45
2019-04-16T12:21:07.220Z,38.76
2019-04-16T12:22:07.191Z,38.56
2019-04-16T12:23:07.132Z,39.34
2019-04-16T12:24:07.172Z,39.14
2019-04-16T12:25:07.175Z,39.62
2019-04-16T12:26:09.386Z,39.45
2019-04-16T12:27:07.342Z,39.36
2019-04-16T12:28:11.974Z,38.97
2019-04-16T12:29:07.440Z,39.36
2019-04-16T12:30:07.219Z,39.55
2019-04-16T12:31:07.188Z,39.47
2019-04-16T12:32:08.284Z,38.78
2019-04-16T12:33:13.471Z,39.26
2019-04-16T12:34:07.216Z,38.87
2019-04-16T12:35:07.315Z,39.28
2019-04-16T12:36:07.321Z,38.78
2019-04-16T12:37:07.267Z,38.29
2019-04-16T12:38:11.917Z,38.58
2019-04-16T12:39:07.302Z,39.26
2019-04-16T12:40:07.357Z,39.36
2019-04-16T12:41:07.283Z,38.46
2019-04-16T12:42:07.232Z,39.34
2019-04-16T12:43:07.231Z,40.11
2019-04-16T12:44:07.427Z,39.94
2019-04-16T12:45:08.883Z,39.64
2019-04-16T12:46:07.258Z,39.57
2019-04-16T12:47:07.274Z,39.67
2019-04-16T12:48:07.248Z,38.58
2019-04-16T12:49:07.299Z,38.56
2019-04-16T12:50:07.297Z,38.68
2019-04-16T12:51:07.261Z,38
2019-04-16T12:52:07.269Z,38.08
2019-04-16T12:53:07.322Z,38.37
2019-04-16T12:54:07.297Z,39.06
2019-04-16T12:55:07.320Z,39.74
2019-04-16T12:56:10.671Z,39.92
2019-04-16T12:57:10.202Z,40.01
2019-04-16T12:58:07.203Z,39.62
2019-04-16T12:59:07.234Z,39.32
2019-04-16T13:00:07.625Z,39.49
2019-04-16T13:01:07.821Z,38.74
2019-04-16T13:02:11.972Z,39.43
2019-04-16T13:03:07.510Z,40.03
2019-04-16T13:04:07.237Z,39.53
2019-04-16T13:05:07.254Z,39.62
2019-04-16T13:06:07.255Z,39.62
2019-04-16T13:07:07.304Z,40.3
2019-04-16T13:08:07.256Z,39.55
2019-04-16T13:09:07.264Z,39.43
2019-04-16T13:10:07.300Z,39.24
2019-04-16T13:11:10.673Z,39.53
2019-04-16T13:12:11.314Z,39.34
2019-04-16T13:13:07.242Z,39.03
2019-04-16T13:14:07.402Z,39.51
2019-04-16T13:15:07.315Z,39.26
2019-04-16T13:16:07.298Z,39.24
2019-04-16T13:17:07.250Z,39.55
2019-04-16T13:18:07.271Z,38.5
2019-04-16T13:19:07.630Z,39.24
2019-04-16T13:20:07.422Z,39.26
2019-04-16T13:21:08.578Z,38.5